»·PEaware :: N7565G L52-L88

N7565G :: L52-L88

FLIGHT INFORMATION

Flight Status: Arrived
Operator: Privately registered:
United States
More flights under this callsign
Pilot: Reuben K. (13591)
Aircraft: CESSNA 172 SKYHAWK
(C172)
More flights by this aircraft type
Origin: L52 Oceano Co
United States
Destination: L88 New Cuyama
United States
More flights between these airports :: More routes between these airports
Route: POZOE
File this flight plan on PilotEdge
Remarks: VFR Flight
Altitude:
(Current/Filed)
5,500ft
Speed:
(Current/Filed)
115kts
Departed: 11-Feb-19 07:37 PM
Arrived: 11-Feb-19 08:07 PM
Distance/Time
Traveled:
47nm/0:30
Distance/Time
To Go:
Arrived

Flight Plot

Page will automatically refresh every two minutes.


Map Options




Map Legend


Flown Route
Filed Route
Departure Airport
Arrival Airport
Navaid (VOR, NDB)
Fix

Horizontal Profiles

Position Reports

Time Latitude Longitude Heading Altitude Ground
Speed
11-Feb-19 19:23 35.099496 -120.619351 20 18ft 0kts
11-Feb-19 19:24 35.099499 -120.619350 21 18ft 0kts
11-Feb-19 19:25 35.099507 -120.619345 27 18ft 0kts
11-Feb-19 19:26 35.099507 -120.619345 27 18ft 0kts
11-Feb-19 19:27 35.099507 -120.619345 27 18ft 0kts
11-Feb-19 19:28 35.099507 -120.619345 27 18ft 0kts
11-Feb-19 19:29 35.099905 -120.619219 302 19ft 0kts
11-Feb-19 19:30 35.101045 -120.622367 128 19ft 6kts
11-Feb-19 19:31 35.099480 -120.619440 54 19ft 2kts
11-Feb-19 19:31 35.099499 -120.619411 48 19ft 0kts
11-Feb-19 19:33 35.099499 -120.619411 48 19ft 0kts
11-Feb-19 19:34 35.099883 -120.619177 303 18ft 0kts
11-Feb-19 19:35 35.099883 -120.619177 303 18ft 0kts
11-Feb-19 19:35 35.099883 -120.619177 303 18ft 0kts
11-Feb-19 19:37 35.112143 -120.633295 354 643ft 84kts
11-Feb-19 19:38 35.125260 -120.617182 92 1733ft 78kts
11-Feb-19 19:38 35.124437 -120.594829 88 2549ft 79kts
11-Feb-19 19:39 35.123580 -120.567535 92 3494ft 81kts
11-Feb-19 19:40 35.124151 -120.539950 84 4467ft 82kts
11-Feb-19 19:41 35.124818 -120.511601 91 5351ft 88kts
11-Feb-19 19:42 35.125854 -120.475401 82 5680ft 118kts
11-Feb-19 19:43 35.131487 -120.435530 79 5631ft 119kts
11-Feb-19 19:44 35.134816 -120.394903 83 5558ft 120kts
11-Feb-19 19:45 35.140924 -120.354703 79 5503ft 120kts
11-Feb-19 19:46 35.147168 -120.314702 68 5443ft 119kts
11-Feb-19 19:47 35.154277 -120.274977 83 5390ft 120kts
11-Feb-19 19:48 35.151288 -120.235196 112 5390ft 117kts
11-Feb-19 19:49 35.138438 -120.199204 105 5462ft 116kts
11-Feb-19 19:50 35.131407 -120.161076 114 5522ft 115kts
11-Feb-19 19:51 35.117343 -120.125581 119 5564ft 116kts
11-Feb-19 19:52 35.101388 -120.091056 115 5568ft 118kts
11-Feb-19 19:53 35.084546 -120.056572 117 5562ft 118kts
11-Feb-19 19:54 35.070002 -120.020504 120 5554ft 118kts
11-Feb-19 19:55 35.055732 -119.983586 121 5453ft 121kts
11-Feb-19 19:56 35.039420 -119.946993 114 5457ft 123kts
11-Feb-19 19:57 35.024468 -119.909073 114 5497ft 124kts
11-Feb-19 19:58 35.010547 -119.870524 118 5525ft 124kts
11-Feb-19 19:59 34.992352 -119.833266 122 5135ft 130kts
11-Feb-19 20:00 34.972828 -119.795947 126 4493ft 130kts
11-Feb-19 20:01 34.953980 -119.761191 124 4337ft 114kts
11-Feb-19 20:02 34.938996 -119.726687 118 3991ft 115kts
11-Feb-19 20:03 34.924445 -119.693560 121 3528ft 97kts
11-Feb-19 20:04 34.919742 -119.668544 56 3247ft 71kts
11-Feb-19 20:05 34.934966 -119.673619 299 2414ft 64kts
11-Feb-19 20:06 34.940518 -119.687015 291 2207ft 30kts
11-Feb-19 20:07 34.942433 -119.690727 33 2207ft 3kts
11-Feb-19 20:08 34.942412 -119.690630 207 2207ft 0kts
11-Feb-19 20:09 34.942412 -119.690630 207 2207ft 0kts
11-Feb-19 20:10 34.942412 -119.690630 207 2207ft 0kts
11-Feb-19 20:11 34.942412 -119.690630 207 2207ft 0kts

Navigation Log

Ident Type
Flight plan parsing failed, navigation log unavailable